createdAt,value
2023-01-22T00:01:09.204Z,101462.63
2023-01-22T00:03:36.844Z,101456.31
2023-01-22T00:06:03.435Z,101450.84
2023-01-22T00:08:29.941Z,101458.88
2023-01-22T00:10:56.588Z,101455.34
2023-01-22T00:13:24.709Z,101450.75
2023-01-22T00:15:51.570Z,101451.63
2023-01-22T00:18:21.619Z,101444.53
2023-01-22T00:20:49.385Z,101448.94
2023-01-22T00:23:20.609Z,101453.44
2023-01-22T00:25:47.281Z,101449.69
2023-01-22T00:28:14.305Z,101444.41
2023-01-22T00:30:43.309Z,101451.63
2023-01-22T00:33:09.806Z,101441.75
2023-01-22T00:35:36.290Z,101441.75
2023-01-22T00:38:03.844Z,101431.88
2023-01-22T00:40:32.675Z,101432.75
2023-01-22T00:42:59.098Z,101430.94
2023-01-22T00:45:25.495Z,101431.88
2023-01-22T00:47:56.794Z,101431.03
2023-01-22T00:50:23.331Z,101425.56
2023-01-22T00:52:50.077Z,101419.47
2023-01-22T00:55:16.751Z,101427.38
2023-01-22T00:57:43.603Z,101430.94
2023-01-22T01:00:11.718Z,101422.91
2023-01-22T01:02:58.652Z,101427.31
2023-01-22T01:05:25.930Z,101421.94
2023-01-22T01:07:52.709Z,101419.16
2023-01-22T01:10:20.127Z,101424.50
2023-01-22T01:12:46.980Z,101421.00
2023-01-22T01:15:15.795Z,101421.94
2023-01-22T01:17:42.566Z,101423.56
2023-01-22T01:20:10.175Z,101418.19
2023-01-22T01:22:36.716Z,101419.00
2023-01-22T01:25:03.719Z,101419.00
2023-01-22T01:27:31.756Z,101417.06
2023-01-22T01:30:00.871Z,101418.88
2023-01-22T01:32:30.487Z,101425.97
2023-01-22T01:34:59.239Z,101432.00
2023-01-22T01:37:28.481Z,101423.00
2023-01-22T01:39:54.992Z,101430.19
2023-01-22T01:42:29.151Z,101428.25
2023-01-22T01:45:25.940Z,101421.94
2023-01-22T01:47:59.203Z,101416.59
2023-01-22T01:50:28.252Z,101416.59
2023-01-22T01:52:56.466Z,101411.97
2023-01-22T01:55:28.708Z,101416.38
2023-01-22T01:58:00.516Z,101412.66
2023-01-22T02:00:31.041Z,101411.88
2023-01-22T02:02:57.667Z,101415.44
2023-01-22T02:05:27.662Z,101415.44
2023-01-22T02:07:54.226Z,101421.53
2023-01-22T02:10:20.808Z,101415.16
2023-01-22T02:12:47.272Z,101410.66
2023-01-22T02:15:14.338Z,101410.66
2023-01-22T02:17:40.808Z,101414.09
2023-01-22T02:20:07.619Z,101414.94
2023-01-22T02:22:40.336Z,101414.88
2023-01-22T02:25:10.003Z,101411.31
2023-01-22T02:27:36.508Z,101405.84
2023-01-22T02:30:03.056Z,101406.72
2023-01-22T02:32:29.500Z,101396.94
2023-01-22T02:34:58.429Z,101400.47
2023-01-22T02:37:24.993Z,101399.53
2023-01-22T02:39:51.482Z,101397.72
2023-01-22T02:42:18.098Z,101392.34
2023-01-22T02:44:47.095Z,101388.81
2023-01-22T02:47:13.667Z,101395.03
2023-01-22T02:49:40.085Z,101392.34
2023-01-22T02:52:06.766Z,101396.84
2023-01-22T02:54:33.247Z,101396.84
2023-01-22T02:56:59.661Z,101396.75
2023-01-22T02:59:29.300Z,101392.22
2023-01-22T03:01:57.362Z,101398.47
2023-01-22T03:04:24.620Z,101396.75
2023-01-22T03:06:51.055Z,101400.41
2023-01-22T03:09:22.793Z,101404.88
2023-01-22T03:11:49.377Z,101395.97
2023-01-22T03:14:34.897Z,101388.81
2023-01-22T03:17:19.993Z,101392.34
2023-01-22T03:20:05.392Z,101395.69
2023-01-22T03:22:32.428Z,101395.69
2023-01-22T03:25:01.438Z,101394.63
2023-01-22T03:27:30.121Z,101390.34
2023-01-22T03:29:59.278Z,101385.72
2023-01-22T03:32:25.859Z,101377.66
2023-01-22T03:34:53.848Z,101376.72
2023-01-22T03:37:21.063Z,101373.84
2023-01-22T03:39:48.297Z,101380.19
2023-01-22T03:42:14.978Z,101378.25
2023-01-22T03:44:41.604Z,101377.28
2023-01-22T03:47:08.666Z,101382.66
2023-01-22T03:49:35.306Z,101381.69
2023-01-22T03:52:01.820Z,101380.72
2023-01-22T03:54:28.205Z,101377.19
2023-01-22T03:56:55.281Z,101375.16
2023-01-22T03:59:25.038Z,101381.50
2023-01-22T04:01:53.576Z,101378.81
2023-01-22T04:04:20.398Z,101380.53
2023-01-22T04:06:49.436Z,101377.84
2023-01-22T04:09:16.275Z,101385.06
2023-01-22T04:11:43.322Z,101381.50
2023-01-22T04:14:12.937Z,101383.19
2023-01-22T04:16:39.919Z,101378.81
2023-01-22T04:19:06.527Z,101382.47
2023-01-22T04:21:33.025Z,101386.09
2023-01-22T04:23:59.839Z,101384.19
2023-01-22T04:26:28.718Z,101386.94
2023-01-22T04:28:56.364Z,101383.19
2023-01-22T04:31:23.200Z,101386.75
2023-01-22T04:33:52.449Z,101390.41
2023-01-22T04:36:19.343Z,101390.41
2023-01-22T04:38:45.859Z,101401.16
2023-01-22T04:41:12.940Z,101403.81
2023-01-22T04:43:44.292Z,101399.41
2023-01-22T04:46:11.560Z,101396.81
2023-01-22T04:48:38.371Z,101396.81
2023-01-22T04:51:07.585Z,101400.28
2023-01-22T04:53:34.407Z,101396.72
2023-01-22T04:56:01.283Z,101393.09
2023-01-22T04:58:27.837Z,101391.25
2023-01-22T05:00:56.568Z,101393.19
2023-01-22T05:03:26.636Z,101388.78
2023-01-22T05:05:53.785Z,101389.63
2023-01-22T05:08:20.441Z,101389.63
2023-01-22T05:10:49.342Z,101399.41
2023-01-22T05:13:16.070Z,101402.97
2023-01-22T05:15:42.522Z,101402.84
2023-01-22T05:18:09.468Z,101397.59
2023-01-22T05:20:36.114Z,101407.47
2023-01-22T05:23:02.953Z,101405.72
2023-01-22T05:25:29.842Z,101411.09
2023-01-22T05:27:56.271Z,101405.81
2023-01-22T05:30:22.833Z,101417.25
2023-01-22T05:32:49.309Z,101417.31
2023-01-22T05:35:15.826Z,101416.38
2023-01-22T05:37:42.829Z,101421.75
2023-01-22T05:40:10.045Z,101418.28
2023-01-22T05:42:37.033Z,101424.41
2023-01-22T05:45:04.072Z,101427.97
2023-01-22T05:47:30.519Z,101432.25
2023-01-22T05:49:57.049Z,101433.13
2023-01-22T05:52:23.661Z,101440.13
2023-01-22T05:54:50.403Z,101437.44
2023-01-22T05:57:16.808Z,101442.78
2023-01-22T05:59:43.339Z,101440.91
2023-01-22T06:02:10.165Z,101445.28
2023-01-22T06:04:36.747Z,101444.31
2023-01-22T06:07:03.190Z,101441.72
2023-01-22T06:09:32.820Z,101447.88
2023-01-22T06:11:59.333Z,101446.25
2023-01-22T06:14:25.765Z,101448.81
2023-01-22T06:16:52.721Z,101445.19
2023-01-22T06:19:19.145Z,101446.06
2023-01-22T06:21:45.635Z,101447.66
2023-01-22T06:24:12.167Z,101448.41
2023-01-22T06:26:39.014Z,101447.66
2023-01-22T06:29:08.364Z,101444.13
2023-01-22T06:31:34.965Z,101442.38
2023-01-22T06:34:01.572Z,101442.31
2023-01-22T06:36:27.942Z,101445.06
2023-01-22T06:38:54.408Z,101435.31
2023-01-22T06:41:23.252Z,101439.81
2023-01-22T06:43:52.759Z,101440.69
2023-01-22T06:46:21.710Z,101440.69
2023-01-22T06:48:49.899Z,101440.69
2023-01-22T06:51:17.044Z,101446.91
2023-01-22T06:53:43.842Z,101459.34
2023-01-22T06:56:10.308Z,101455.06
2023-01-22T06:58:37.511Z,101461.28
2023-01-22T07:01:06.749Z,101459.16
2023-01-22T07:03:33.901Z,101460.22
2023-01-22T07:06:04.358Z,101463.78
2023-01-22T07:08:33.422Z,101468.25
2023-01-22T07:11:01.009Z,101472.75
2023-01-22T07:13:27.889Z,101478.25
2023-01-22T07:15:54.568Z,101478.91
2023-01-22T07:18:24.155Z,101482.53
2023-01-22T07:20:56.770Z,101483.41
2023-01-22T07:23:23.392Z,101488.78
2023-01-22T07:25:51.820Z,101488.78
2023-01-22T07:28:18.351Z,101497.78
2023-01-22T07:30:48.131Z,101502.19
2023-01-22T07:33:20.054Z,101500.38
2023-01-22T07:35:55.408Z,101507.34
2023-01-22T07:38:22.116Z,101507.94
2023-01-22T07:40:49.125Z,101501.59
2023-01-22T07:43:16.282Z,101515.72
2023-01-22T07:45:42.696Z,101517.22
2023-01-22T07:48:10.760Z,101520.56
2023-01-22T07:50:40.090Z,101516.16
2023-01-22T07:53:08.130Z,101526.50
2023-01-22T07:55:34.601Z,101528.25
2023-01-22T07:58:04.351Z,101530.63
2023-01-22T08:00:35.507Z,101534.06
2023-01-22T08:03:04.482Z,101536.47
2023-01-22T08:05:31.003Z,101531.66
2023-01-22T08:07:57.431Z,101532.22
2023-01-22T08:10:26.136Z,101545.34
2023-01-22T08:12:55.593Z,101540.84
2023-01-22T08:15:22.563Z,101543.91
2023-01-22T08:17:51.034Z,101548.78
2023-01-22T08:20:18.068Z,101551.50
2023-01-22T08:22:45.411Z,101557.44
2023-01-22T08:25:11.862Z,101558.97
2023-01-22T08:27:38.428Z,101560.06
2023-01-22T08:30:05.874Z,101558.63
2023-01-22T08:32:32.337Z,101560.88
2023-01-22T08:34:58.879Z,101562.66
2023-01-22T08:37:26.020Z,101569.66
2023-01-22T08:39:52.485Z,101566.72
2023-01-22T08:42:24.048Z,101567.91
2023-01-22T08:44:50.451Z,101566.97
2023-01-22T08:47:17.057Z,101573.00
2023-01-22T08:49:43.696Z,101568.22
2023-01-22T08:52:10.316Z,101569.94
2023-01-22T08:54:39.181Z,101583.91
2023-01-22T08:57:05.553Z,101573.16
2023-01-22T08:59:32.445Z,101573.41
2023-01-22T09:01:59.931Z,101579.81
2023-01-22T09:04:26.721Z,101576.28
2023-01-22T09:06:53.230Z,101572.09
2023-01-22T09:09:19.586Z,101574.78
2023-01-22T09:11:46.800Z,101578.44
2023-01-22T09:14:18.445Z,101581.88
2023-01-22T09:16:45.096Z,101583.50
2023-01-22T09:19:12.057Z,101594.56
2023-01-22T09:21:38.743Z,101582.53
2023-01-22T09:24:06.623Z,101585.63
2023-01-22T09:26:33.792Z,101584.34
2023-01-22T09:29:01.315Z,101589.63
2023-01-22T09:31:30.611Z,101593.75
2023-01-22T09:33:57.006Z,101597.97
2023-01-22T09:36:23.682Z,101601.03
2023-01-22T09:38:50.594Z,101593.53
2023-01-22T09:41:39.067Z,101599.31
2023-01-22T09:44:12.857Z,101605.25
2023-01-22T09:46:44.521Z,101604.50
2023-01-22T09:49:17.964Z,101601.31
2023-01-22T09:52:00.578Z,101612.81
2023-01-22T09:54:29.375Z,101614.09
2023-01-22T09:56:58.483Z,101618.84
2023-01-22T09:59:48.914Z,101619.09
2023-01-22T10:02:28.037Z,101618.22
2023-01-22T10:05:00.937Z,101617.38
2023-01-22T10:07:39.631Z,101618.50
2023-01-22T10:10:18.631Z,101627.09
2023-01-22T10:12:51.118Z,101621.41
2023-01-22T10:15:22.287Z,101620.06
2023-01-22T10:17:49.171Z,101613.81
2023-01-22T10:20:18.791Z,101614.59
2023-01-22T10:22:45.592Z,101619.25
2023-01-22T10:25:16.571Z,101620.53
2023-01-22T10:27:44.784Z,101617.41
2023-01-22T10:30:14.520Z,101613.31
2023-01-22T10:32:41.000Z,101611.31
2023-01-22T10:35:18.311Z,101615.72
2023-01-22T10:37:48.734Z,101609.25
2023-01-22T10:40:30.981Z,101621.22
2023-01-22T10:43:17.650Z,101624.31
2023-01-22T10:46:01.464Z,101629.31
2023-01-22T10:48:27.921Z,101629.72
2023-01-22T10:51:11.997Z,101627.34
2023-01-22T10:53:45.607Z,101627.16
2023-01-22T10:56:13.034Z,101622.34
2023-01-22T10:58:46.048Z,101632.50
2023-01-22T11:01:26.978Z,101620.22
2023-01-22T11:03:53.533Z,101631.97
2023-01-22T11:06:30.076Z,101623.13
2023-01-22T11:09:23.847Z,101625.81
2023-01-22T11:12:18.262Z,101621.84
2023-01-22T11:14:47.781Z,101626.47
2023-01-22T11:17:27.540Z,101630.38
2023-01-22T11:20:02.783Z,101624.56
2023-01-22T11:22:35.196Z,101623.38
2023-01-22T11:25:02.676Z,101617.00
2023-01-22T11:27:49.887Z,101617.66
2023-01-22T11:30:37.288Z,101618.50
2023-01-22T11:33:21.501Z,101619.81
2023-01-22T11:35:56.207Z,101610.00
2023-01-22T11:38:38.579Z,101613.94
2023-01-22T11:41:16.432Z,101619.38
2023-01-22T11:44:20.511Z,101615.16
2023-01-22T11:47:04.704Z,101606.47
2023-01-22T11:49:55.421Z,101612.50
2023-01-22T11:52:37.320Z,101608.69
2023-01-22T11:55:40.964Z,101604.91
2023-01-22T11:58:24.436Z,101606.75
2023-01-22T12:01:08.616Z,101604.78
2023-01-22T12:04:10.461Z,101598.97
2023-01-22T12:07:11.889Z,101600.56
2023-01-22T12:09:56.239Z,101591.44
2023-01-22T12:12:43.963Z,101587.88
2023-01-22T12:15:34.401Z,101597.19
2023-01-22T12:18:03.683Z,101591.25
2023-01-22T12:21:05.848Z,101595.78
2023-01-22T12:23:38.130Z,101594.06
2023-01-22T12:26:04.674Z,101586.38
2023-01-22T12:28:34.642Z,101586.69
2023-01-22T12:31:05.402Z,101591.50
2023-01-22T12:33:38.192Z,101594.75
2023-01-22T12:36:07.952Z,101594.44
2023-01-22T12:38:56.081Z,101594.22
2023-01-22T12:41:52.296Z,101605.41
2023-01-22T12:44:46.135Z,101597.59
2023-01-22T12:47:21.824Z,101607.38
2023-01-22T12:49:52.287Z,101597.94
2023-01-22T12:52:27.966Z,101596.06
2023-01-22T12:54:55.597Z,101606.31
2023-01-22T12:57:21.985Z,101595.81
2023-01-22T12:59:54.496Z,101593.47
2023-01-22T13:02:32.025Z,101602.31
2023-01-22T13:05:12.670Z,101592.38
2023-01-22T13:07:43.019Z,101590.44
2023-01-22T13:10:26.519Z,101596.91
2023-01-22T13:13:03.176Z,101593.47
2023-01-22T13:15:37.364Z,101598.41
2023-01-22T13:18:19.321Z,101598.31
2023-01-22T13:20:56.708Z,101607.75
2023-01-22T13:23:26.434Z,101612.03
2023-01-22T13:25:57.141Z,101612.91
2023-01-22T13:28:25.297Z,101613.69
2023-01-22T13:31:13.371Z,101611.84
2023-01-22T13:33:39.866Z,101615.41
2023-01-22T13:36:14.956Z,101622.81
2023-01-22T13:38:41.439Z,101618.94
2023-01-22T13:41:10.991Z,101623.25
2023-01-22T13:43:39.490Z,101617.88
2023-01-22T13:46:07.043Z,101625.63
2023-01-22T13:48:36.178Z,101626.81
2023-01-22T13:51:14.440Z,101625.22
2023-01-22T13:53:45.777Z,101625.44
2023-01-22T13:56:17.112Z,101637.25
2023-01-22T13:58:48.870Z,101635.31
2023-01-22T14:01:33.555Z,101640.06
2023-01-22T14:04:24.530Z,101634.34
2023-01-22T14:06:51.160Z,101635.09
2023-01-22T14:09:31.286Z,101639.94
2023-01-22T14:11:59.387Z,101629.91
2023-01-22T14:14:31.029Z,101621.31
2023-01-22T14:16:57.506Z,101631.44
2023-01-22T14:19:23.978Z,101634.00
2023-01-22T14:21:50.390Z,101635.94
2023-01-22T14:24:16.870Z,101634.22
2023-01-22T14:26:43.599Z,101647.66
2023-01-22T14:29:10.054Z,101637.69
2023-01-22T14:31:39.387Z,101638.72
2023-01-22T14:34:06.048Z,101654.13
2023-01-22T14:36:33.302Z,101649.06
2023-01-22T14:39:00.249Z,101652.06
2023-01-22T14:41:27.210Z,101649.34
2023-01-22T14:43:53.716Z,101652.91
2023-01-22T14:46:20.277Z,101650.22
2023-01-22T14:48:47.394Z,101653.88
2023-01-22T14:51:14.094Z,101649.66
2023-01-22T14:53:40.647Z,101657.84
2023-01-22T14:56:07.491Z,101651.69
2023-01-22T14:58:33.917Z,101653.66
2023-01-22T15:01:13.325Z,101645.66
2023-01-22T15:03:39.824Z,101656.63
2023-01-22T15:06:06.268Z,101659.53
2023-01-22T15:08:32.666Z,101664.06
2023-01-22T15:11:02.961Z,101675.88
2023-01-22T15:13:29.339Z,101666.94
2023-01-22T15:15:56.141Z,101670.50
2023-01-22T15:18:22.695Z,101673.41
2023-01-22T15:20:49.331Z,101672.53
2023-01-22T15:23:16.378Z,101677.25
2023-01-22T15:25:42.816Z,101685.34
2023-01-22T15:28:09.219Z,101690.81
2023-01-22T15:30:40.492Z,101689.06
2023-01-22T15:33:07.558Z,101692.84
2023-01-22T15:35:34.222Z,101693.78
2023-01-22T15:38:05.906Z,101688.53
2023-01-22T15:40:32.449Z,101687.66
2023-01-22T15:42:58.854Z,101696.69
2023-01-22T15:45:25.490Z,101698.63
2023-01-22T15:47:53.552Z,101701.50
2023-01-22T15:50:21.460Z,101701.50
2023-01-22T15:52:55.020Z,101701.50
2023-01-22T15:55:21.753Z,101702.47
2023-01-22T15:57:48.313Z,101696.31
2023-01-22T16:00:15.390Z,101697.19
2023-01-22T16:02:42.306Z,101699.00
2023-01-22T16:05:13.102Z,101696.53
2023-01-22T16:07:39.567Z,101695.84
2023-01-22T16:10:06.249Z,101708.44
2023-01-22T16:12:34.810Z,101714.69
2023-01-22T16:15:01.419Z,101711.13
2023-01-22T16:17:27.953Z,101709.38
2023-01-22T16:19:54.340Z,101705.16
2023-01-22T16:22:23.424Z,101706.16
2023-01-22T16:24:52.203Z,101710.53
2023-01-22T16:27:18.746Z,101715.91
2023-01-22T16:29:47.847Z,101717.00
2023-01-22T16:32:14.293Z,101710.66
2023-01-22T16:34:42.929Z,101720.63
2023-01-22T16:37:09.360Z,101719.59
2023-01-22T16:39:36.733Z,101718.72
2023-01-22T16:42:03.462Z,101720.53
2023-01-22T16:44:33.767Z,101728.69
2023-01-22T16:47:00.795Z,101729.47
2023-01-22T16:49:32.702Z,101728.69
2023-01-22T16:52:21.975Z,101734.94
2023-01-22T16:54:49.811Z,101738.69
2023-01-22T16:57:18.129Z,101741.31
2023-01-22T16:59:47.521Z,101742.13
2023-01-22T17:02:16.473Z,101747.44
2023-01-22T17:04:54.339Z,101749.38
2023-01-22T17:07:33.283Z,101748.28
2023-01-22T17:10:03.647Z,101742.06
2023-01-22T17:12:33.909Z,101753.75
2023-01-22T17:15:03.587Z,101756.25
2023-01-22T17:17:32.583Z,101758.19
2023-01-22T17:19:59.248Z,101757.44
2023-01-22T17:22:26.593Z,101765.38
2023-01-22T17:24:53.538Z,101772.56
2023-01-22T17:27:21.609Z,101771.81
2023-01-22T17:29:53.223Z,101770.94
2023-01-22T17:32:20.652Z,101770.09
2023-01-22T17:34:47.105Z,101770.09
2023-01-22T17:37:13.922Z,101775.38
2023-01-22T17:39:42.815Z,101770.94
2023-01-22T17:42:09.515Z,101770.94
2023-01-22T17:44:36.040Z,101774.78
2023-01-22T17:47:07.357Z,101773.06
2023-01-22T17:49:36.123Z,101774.59
2023-01-22T17:52:03.283Z,101764.91
2023-01-22T17:54:30.076Z,101773.16
2023-01-22T17:56:56.939Z,101776.53
2023-01-22T17:59:25.836Z,101777.56
2023-01-22T18:01:54.712Z,101777.75
2023-01-22T18:04:23.940Z,101783.34
2023-01-22T18:06:50.376Z,101783.91
2023-01-22T18:09:20.679Z,101787.38
2023-01-22T18:11:47.591Z,101792.84
2023-01-22T18:14:21.715Z,101786.50
2023-01-22T18:16:50.751Z,101798.41
2023-01-22T18:19:22.793Z,101798.22
2023-01-22T18:21:49.662Z,101791.13
2023-01-22T18:24:23.059Z,101800.22
2023-01-22T18:26:50.588Z,101803.88
2023-01-22T18:29:17.076Z,101804.75
2023-01-22T18:31:44.477Z,101805.50
2023-01-22T18:34:14.490Z,101806.56
2023-01-22T18:36:42.395Z,101811.06
2023-01-22T18:39:12.729Z,101808.97
2023-01-22T18:41:40.720Z,101807.13
2023-01-22T18:44:08.747Z,101808.09
2023-01-22T18:46:41.464Z,101815.03
2023-01-22T18:49:12.259Z,101820.56
2023-01-22T18:51:41.843Z,101817.88
2023-01-22T18:54:13.428Z,101819.72
2023-01-22T18:56:42.587Z,101825.84
2023-01-22T18:59:09.148Z,101826.81
2023-01-22T19:01:38.553Z,101810.97
2023-01-22T19:04:09.769Z,101823.44
2023-01-22T19:06:37.918Z,101819.81
2023-01-22T19:09:09.506Z,101820.00
2023-01-22T19:11:39.227Z,101828.06
2023-01-22T19:14:09.099Z,101829.09
2023-01-22T19:16:37.470Z,101828.44
2023-01-22T19:19:11.266Z,101821.22
2023-01-22T19:21:43.537Z,101827.75
2023-01-22T19:24:11.559Z,101832.19
2023-01-22T19:26:38.399Z,101837.16
2023-01-22T19:29:09.407Z,101840.03
2023-01-22T19:31:40.759Z,101844.28
2023-01-22T19:34:09.077Z,101838.81
2023-01-22T19:36:40.442Z,101843.22
2023-01-22T19:39:13.617Z,101838.91
2023-01-22T19:41:41.234Z,101849.56
2023-01-22T19:44:09.673Z,101852.25
2023-01-22T19:46:39.366Z,101857.81
2023-01-22T19:49:06.926Z,101857.81
2023-01-22T19:51:36.022Z,101862.03
2023-01-22T19:54:04.596Z,101854.16
2023-01-22T19:56:33.734Z,101858.59
2023-01-22T19:59:05.812Z,101873.66
2023-01-22T20:01:36.736Z,101870.69
2023-01-22T20:04:07.255Z,101863.56
2023-01-22T20:06:33.751Z,101871.63
2023-01-22T20:09:03.607Z,101875.19
2023-01-22T20:11:32.670Z,101861.88
2023-01-22T20:13:59.208Z,101870.97
2023-01-22T20:16:28.265Z,101872.78
2023-01-22T20:18:56.883Z,101866.72
2023-01-22T20:21:25.333Z,101872.78
2023-01-22T20:23:52.544Z,101873.84
2023-01-22T20:26:21.411Z,101869.34
2023-01-22T20:28:51.152Z,101871.25
2023-01-22T20:31:23.063Z,101875.78
2023-01-22T20:33:54.652Z,101876.03
2023-01-22T20:36:24.477Z,101876.63
2023-01-22T20:38:53.279Z,101870.66
2023-01-22T20:41:21.628Z,101873.94
2023-01-22T20:43:48.357Z,101867.78
2023-01-22T20:46:20.563Z,101880.47
2023-01-22T20:48:47.591Z,101880.47
2023-01-22T20:51:16.595Z,101887.66
2023-01-22T20:53:44.238Z,101890.25
2023-01-22T20:56:26.955Z,101890.44
2023-01-22T20:58:58.631Z,101896.47
2023-01-22T21:01:25.482Z,101894.75
2023-01-22T21:03:55.800Z,101891.09
2023-01-22T21:06:22.609Z,101894.94
2023-01-22T21:08:52.415Z,101886.53
2023-01-22T21:11:20.786Z,101884.88
2023-01-22T21:13:49.167Z,101889.38
2023-01-22T21:16:18.942Z,101882.28
2023-01-22T21:18:46.686Z,101886.88
2023-01-22T21:21:18.634Z,101881.59
2023-01-22T21:23:48.903Z,101879.88
2023-01-22T21:26:19.082Z,101890.69
2023-01-22T21:28:48.443Z,101886.00
2023-01-22T21:31:18.311Z,101882.38
2023-01-22T21:33:48.665Z,101887.75
2023-01-22T21:36:18.244Z,101889.47
2023-01-22T21:38:47.846Z,101887.94
2023-01-22T21:41:16.954Z,101890.69
2023-01-22T21:44:04.258Z,101887.75
2023-01-22T21:46:42.508Z,101893.22
2023-01-22T21:49:19.909Z,101888.63
2023-01-22T21:51:52.050Z,101895.25
2023-01-22T21:54:22.033Z,101896.94
2023-01-22T21:56:49.185Z,101896.06
2023-01-22T21:59:15.884Z,101890.63
2023-01-22T22:01:43.093Z,101893.31
2023-01-22T22:04:10.098Z,101898.69
2023-01-22T22:06:39.586Z,101897.94
2023-01-22T22:09:10.583Z,101898.09
2023-01-22T22:11:37.110Z,101900.78
2023-01-22T22:14:05.700Z,101898.19
2023-01-22T22:16:36.119Z,101899.06
2023-01-22T22:19:02.663Z,101899.81
2023-01-22T22:21:29.053Z,101902.31
2023-01-22T22:23:58.016Z,101900.63
2023-01-22T22:26:27.564Z,101900.41
2023-01-22T22:28:54.287Z,101910.09
2023-01-22T22:31:23.151Z,101899.34
2023-01-22T22:33:52.285Z,101901.09
2023-01-22T22:36:22.008Z,101897.72
2023-01-22T22:38:54.092Z,101906.56
2023-01-22T22:41:26.530Z,101908.03
2023-01-22T22:43:54.603Z,101912.34
2023-01-22T22:46:22.998Z,101914.06
2023-01-22T22:48:50.114Z,101913.97
2023-01-22T22:51:27.307Z,101918.31
2023-01-22T22:53:56.929Z,101917.31
2023-01-22T22:56:24.308Z,101920.13
2023-01-22T22:58:51.872Z,101915.44
2023-01-22T23:01:21.546Z,101919.06
2023-01-22T23:03:48.550Z,101923.56
2023-01-22T23:06:21.324Z,101921.00
2023-01-22T23:08:58.398Z,101924.72
2023-01-22T23:11:27.192Z,101927.50
2023-01-22T23:13:54.096Z,101930.28
2023-01-22T23:16:22.778Z,101927.59
2023-01-22T23:18:53.857Z,101929.53
2023-01-22T23:21:25.019Z,101934.03
2023-01-22T23:23:52.381Z,101934.22
2023-01-22T23:26:22.938Z,101928.84
2023-01-22T23:28:51.927Z,101927.09
2023-01-22T23:31:18.709Z,101924.50
2023-01-22T23:33:45.418Z,101919.31
2023-01-22T23:36:14.692Z,101928.44
2023-01-22T23:38:41.194Z,101927.63
2023-01-22T23:41:09.928Z,101930.31
2023-01-22T23:43:39.443Z,101934.94
2023-01-22T23:46:10.862Z,101934.00
2023-01-22T23:48:37.653Z,101929.75
2023-01-22T23:51:06.292Z,101930.88
2023-01-22T23:53:35.849Z,101936.16
2023-01-22T23:56:04.003Z,101938.34
2023-01-22T23:58:30.644Z,101931.34
